sensor_id;sensor_type;location;lat;lon;timestamp;pressure;altitude;pressure_sealevel;temperature;humidity
19553;BME280;9420;50.876;7.012;2022-12-18T00:02:27;102494.81;;;1.42;98.68
19553;BME280;9420;50.876;7.012;2022-12-18T00:04:54;102486.31;;;1.46;98.63
19553;BME280;9420;50.876;7.012;2022-12-18T00:07:22;102490.50;;;1.19;98.80
19553;BME280;9420;50.876;7.012;2022-12-18T00:09:49;102497.34;;;1.17;99.27
19553;BME280;9420;50.876;7.012;2022-12-18T00:12:16;102497.56;;;1.23;99.71
19553;BME280;9420;50.876;7.012;2022-12-18T00:14:46;102485.06;;;1.13;99.67
19553;BME280;9420;50.876;7.012;2022-12-18T00:17:13;102493.53;;;1.08;100.00
19553;BME280;9420;50.876;7.012;2022-12-18T00:19:40;102499.06;;;0.95;100.00
19553;BME280;9420;50.876;7.012;2022-12-18T00:22:07;102499.28;;;1.01;100.00
19553;BME280;9420;50.876;7.012;2022-12-18T00:24:36;102494.25;;;1.27;99.96
19553;BME280;9420;50.876;7.012;2022-12-18T00:27:03;102492.06;;;1.38;98.78
19553;BME280;9420;50.876;7.012;2022-12-18T00:29:30;102494.56;;;1.36;98.45
19553;BME280;9420;50.876;7.012;2022-12-18T00:31:57;102502.75;;;1.23;98.42
19553;BME280;9420;50.876;7.012;2022-12-18T00:34:24;102494.13;;;1.24;98.35
19553;BME280;9420;50.876;7.012;2022-12-18T00:36:51;102503.06;;;1.32;98.67
19553;BME280;9420;50.876;7.012;2022-12-18T00:39:18;102508.53;;;1.16;98.70
19553;BME280;9420;50.876;7.012;2022-12-18T00:41:46;102516.94;;;1.33;98.19
19553;BME280;9420;50.876;7.012;2022-12-18T00:44:31;102526.66;;;1.15;98.00
19553;BME280;9420;50.876;7.012;2022-12-18T00:46:58;102520.06;;;1.24;98.05
19553;BME280;9420;50.876;7.012;2022-12-18T00:49:26;102506.53;;;1.09;98.72
19553;BME280;9420;50.876;7.012;2022-12-18T00:51:55;102507.31;;;1.30;97.95
19553;BME280;9420;50.876;7.012;2022-12-18T00:54:23;102500.53;;;1.10;98.27
19553;BME280;9420;50.876;7.012;2022-12-18T00:56:51;102499.22;;;1.21;97.47
19553;BME280;9420;50.876;7.012;2022-12-18T00:59:21;102501.44;;;0.89;96.86
19553;BME280;9420;50.876;7.012;2022-12-18T01:01:48;102491.19;;;0.69;97.02
19553;BME280;9420;50.876;7.012;2022-12-18T01:04:15;102492.78;;;0.66;97.46
19553;BME280;9420;50.876;7.012;2022-12-18T01:06:42;102499.19;;;0.53;97.95
19553;BME280;9420;50.876;7.012;2022-12-18T01:09:09;102504.25;;;0.50;97.66
19553;BME280;9420;50.876;7.012;2022-12-18T01:11:36;102499.63;;;0.42;97.89
19553;BME280;9420;50.876;7.012;2022-12-18T01:14:05;102498.41;;;0.34;98.39
19553;BME280;9420;50.876;7.012;2022-12-18T01:16:32;102496.66;;;0.33;98.62
19553;BME280;9420;50.876;7.012;2022-12-18T01:18:59;102500.63;;;0.25;98.47
19553;BME280;9420;50.876;7.012;2022-12-18T01:21:26;102500.97;;;0.34;99.49
19553;BME280;9420;50.876;7.012;2022-12-18T01:23:55;102497.63;;;0.36;100.00
19553;BME280;9420;50.876;7.012;2022-12-18T01:26:24;102486.53;;;0.61;100.00
19553;BME280;9420;50.876;7.012;2022-12-18T01:28:54;102484.25;;;0.68;100.00
19553;BME280;9420;50.876;7.012;2022-12-18T01:31:26;102497.72;;;0.82;100.00
19553;BME280;9420;50.876;7.012;2022-12-18T01:33:55;102496.97;;;0.62;100.00
19553;BME280;9420;50.876;7.012;2022-12-18T01:36:26;102502.81;;;0.79;100.00
19553;BME280;9420;50.876;7.012;2022-12-18T01:38:55;102496.06;;;0.84;100.00
19553;BME280;9420;50.876;7.012;2022-12-18T01:41:26;102496.06;;;0.84;100.00
19553;BME280;9420;50.876;7.012;2022-12-18T01:44:57;102488.91;;;0.77;100.00
19553;BME280;9420;50.876;7.012;2022-12-18T01:47:35;102501.03;;;0.78;100.00
19553;BME280;9420;50.876;7.012;2022-12-18T01:50:08;102513.78;;;0.94;100.00
19553;BME280;9420;50.876;7.012;2022-12-18T01:52:42;102502.56;;;0.73;100.00
19553;BME280;9420;50.876;7.012;2022-12-18T01:55:12;102502.81;;;0.79;100.00
19553;BME280;9420;50.876;7.012;2022-12-18T01:57:41;102494.19;;;0.80;100.00
19553;BME280;9420;50.876;7.012;2022-12-18T02:00:14;102495.38;;;0.66;100.00
19553;BME280;9420;50.876;7.012;2022-12-18T02:02:45;102486.59;;;0.85;100.00
19553;BME280;9420;50.876;7.012;2022-12-18T02:05:17;102483.28;;;0.89;100.00
19553;BME280;9420;50.876;7.012;2022-12-18T02:07:56;102489.66;;;0.52;100.00
19553;BME280;9420;50.876;7.012;2022-12-18T02:10:38;102499.59;;;0.86;100.00
19553;BME280;9420;50.876;7.012;2022-12-18T02:13:16;102493.56;;;0.86;99.36
19553;BME280;9420;50.876;7.012;2022-12-18T02:15:55;102491.25;;;0.71;100.00
19553;BME280;9420;50.876;7.012;2022-12-18T02:18:32;102491.00;;;0.87;98.97
19553;BME280;9420;50.876;7.012;2022-12-18T02:21:12;102484.75;;;1.04;98.26
19553;BME280;9420;50.876;7.012;2022-12-18T02:23:56;102487.56;;;0.88;99.13
19553;BME280;9420;50.876;7.012;2022-12-18T02:26:30;102490.56;;;0.75;99.33
19553;BME280;9420;50.876;7.012;2022-12-18T02:29:07;102490.56;;;0.75;99.74
19553;BME280;9420;50.876;7.012;2022-12-18T02:31:40;102483.34;;;0.68;99.59
19553;BME280;9420;50.876;7.012;2022-12-18T02:34:10;102499.59;;;0.86;98.85
19553;BME280;9420;50.876;7.012;2022-12-18T02:36:41;102501.97;;;0.58;99.65
19553;BME280;9420;50.876;7.012;2022-12-18T02:39:12;102487.47;;;0.85;99.35
19553;BME280;9420;50.876;7.012;2022-12-18T02:41:42;102483.53;;;1.18;97.46
19553;BME280;9420;50.876;7.012;2022-12-18T02:44:12;102480.28;;;0.78;97.78
19553;BME280;9420;50.876;7.012;2022-12-18T02:46:43;102478.28;;;0.93;97.70
19553;BME280;9420;50.876;7.012;2022-12-18T02:49:24;102484.19;;;0.89;97.21
19553;BME280;9420;50.876;7.012;2022-12-18T02:52:02;102484.34;;;0.71;97.82
19553;BME280;9420;50.876;7.012;2022-12-18T02:54:58;102479.44;;;0.77;97.82
19553;BME280;9420;50.876;7.012;2022-12-18T02:57:38;102476.34;;;0.65;98.34
19553;BME280;9420;50.876;7.012;2022-12-18T03:00:10;102466.22;;;0.49;99.60
19553;BME280;9420;50.876;7.012;2022-12-18T03:02:46;102474.50;;;0.63;99.83
19553;BME280;9420;50.876;7.012;2022-12-18T03:05:17;102483.13;;;0.62;99.28
19553;BME280;9420;50.876;7.012;2022-12-18T03:07:52;102488.53;;;0.68;99.23
19553;BME280;9420;50.876;7.012;2022-12-18T03:10:27;102490.91;;;0.62;100.00
19553;BME280;9420;50.876;7.012;2022-12-18T03:13:04;102479.59;;;0.60;100.00
19553;BME280;9420;50.876;7.012;2022-12-18T03:15:36;102482.66;;;0.72;100.00
19553;BME280;9420;50.876;7.012;2022-12-18T03:18:10;102481.19;;;0.78;99.59
19553;BME280;9420;50.876;7.012;2022-12-18T03:20:44;102462.84;;;0.74;98.82
19553;BME280;9420;50.876;7.012;2022-12-18T03:23:17;102467.13;;;0.73;99.90
19553;BME280;9420;50.876;7.012;2022-12-18T03:25:46;102465.09;;;0.65;98.82
19553;BME280;9420;50.876;7.012;2022-12-18T03:28:20;102463.31;;;0.64;99.05
19553;BME280;9420;50.876;7.012;2022-12-18T03:30:55;102456.13;;;0.57;98.62
19553;BME280;9420;50.876;7.012;2022-12-18T03:33:28;102459.78;;;0.62;98.28
19553;BME280;9420;50.876;7.012;2022-12-18T03:35:57;102456.59;;;0.47;99.12
19553;BME280;9420;50.876;7.012;2022-12-18T03:38:24;102450.00;;;0.55;99.91
19553;BME280;9420;50.876;7.012;2022-12-18T03:41:00;102446.38;;;0.50;99.28
19553;BME280;9420;50.876;7.012;2022-12-18T03:43:48;102449.91;;;0.52;99.10
19553;BME280;9420;50.876;7.012;2022-12-18T03:46:26;102456.84;;;0.53;99.75
19553;BME280;9420;50.876;7.012;2022-12-18T03:49:01;102463.91;;;0.57;99.54
19553;BME280;9420;50.876;7.012;2022-12-18T03:51:39;102456.84;;;0.53;98.75
19553;BME280;9420;50.876;7.012;2022-12-18T03:54:09;102447.53;;;0.36;98.90
19553;BME280;9420;50.876;7.012;2022-12-18T03:56:42;102454.13;;;0.28;99.24
19553;BME280;9420;50.876;7.012;2022-12-18T03:59:13;102453.50;;;0.13;99.78
19553;BME280;9420;50.876;7.012;2022-12-18T04:01:47;102454.28;;;0.10;100.00
19553;BME280;9420;50.876;7.012;2022-12-18T04:04:18;102450.25;;;0.17;99.05
19553;BME280;9420;50.876;7.012;2022-12-18T04:06:47;102456.78;;;0.09;99.73
19553;BME280;9420;50.876;7.012;2022-12-18T04:09:16;102455.66;;;-0.19;99.18
19553;BME280;9420;50.876;7.012;2022-12-18T04:11:43;102451.25;;;-0.01;99.81
19553;BME280;9420;50.876;7.012;2022-12-18T04:14:11;102443.94;;;-0.11;99.73
19553;BME280;9420;50.876;7.012;2022-12-18T04:16:38;102431.81;;;-0.12;100.00
19553;BME280;9420;50.876;7.012;2022-12-18T04:19:05;102439.25;;;0.02;99.48
19553;BME280;9420;50.876;7.012;2022-12-18T04:21:33;102432.91;;;-0.07;100.00
19553;BME280;9420;50.876;7.012;2022-12-18T04:24:00;102443.94;;;-0.11;100.00
19553;BME280;9420;50.876;7.012;2022-12-18T04:26:27;102441.06;;;-0.17;100.00
19553;BME280;9420;50.876;7.012;2022-12-18T04:28:54;102444.19;;;-0.05;100.00
19553;BME280;9420;50.876;7.012;2022-12-18T04:31:22;102448.97;;;-0.14;100.00
19553;BME280;9420;50.876;7.012;2022-12-18T04:33:49;102443.31;;;-0.05;99.79
19553;BME280;9420;50.876;7.012;2022-12-18T04:36:16;102449.72;;;0.05;98.79
19553;BME280;9420;50.876;7.012;2022-12-18T04:38:44;102442.72;;;-0.19;98.17
19553;BME280;9420;50.876;7.012;2022-12-18T04:41:13;102442.66;;;-0.20;99.59
19553;BME280;9420;50.876;7.012;2022-12-18T04:43:40;102446.84;;;-0.24;99.47
19553;BME280;9420;50.876;7.012;2022-12-18T04:46:08;102438.00;;;-0.29;98.30
19553;BME280;9420;50.876;7.012;2022-12-18T04:48:37;102441.78;;;-0.21;98.51
19553;BME280;9420;50.876;7.012;2022-12-18T04:51:06;102448.69;;;-0.21;99.41
19553;BME280;9420;50.876;7.012;2022-12-18T04:53:33;102445.06;;;-0.25;99.66
19553;BME280;9420;50.876;7.012;2022-12-18T04:56:09;102444.44;;;-0.19;99.52
19553;BME280;9420;50.876;7.012;2022-12-18T04:58:37;102434.84;;;-0.22;100.00
19553;BME280;9420;50.876;7.012;2022-12-18T05:01:05;102446.59;;;-0.30;100.00
19553;BME280;9420;50.876;7.012;2022-12-18T05:03:34;102441.78;;;-0.21;100.00
19553;BME280;9420;50.876;7.012;2022-12-18T05:06:03;102437.38;;;-0.23;100.00
19553;BME280;9420;50.876;7.012;2022-12-18T05:08:31;102439.63;;;-0.31;100.00
19553;BME280;9420;50.876;7.012;2022-12-18T05:10:59;102431.75;;;-0.34;100.00
19553;BME280;9420;50.876;7.012;2022-12-18T05:13:26;102428.13;;;-0.17;100.00
19553;BME280;9420;50.876;7.012;2022-12-18T05:15:54;102422.47;;;-0.29;100.00
19553;BME280;9420;50.876;7.012;2022-12-18T05:18:22;102407.16;;;-0.02;99.76
19553;BME280;9420;50.876;7.012;2022-12-18T05:20:49;102410.16;;;0.29;97.55
19553;BME280;9420;50.876;7.012;2022-12-18T05:23:19;102419.41;;;0.23;96.46
19553;BME280;9420;50.876;7.012;2022-12-18T05:25:51;102423.31;;;0.13;96.13
19553;BME280;9420;50.876;7.012;2022-12-18T05:28:18;102423.91;;;-0.15;95.97
19553;BME280;9420;50.876;7.012;2022-12-18T05:30:48;102425.38;;;-0.01;96.81
19553;BME280;9420;50.876;7.012;2022-12-18T05:33:16;102424.00;;;-0.13;95.83
19553;BME280;9420;50.876;7.012;2022-12-18T05:35:44;102422.03;;;0.24;95.00
19553;BME280;9420;50.876;7.012;2022-12-18T05:38:11;102425.81;;;0.10;95.57
19553;BME280;9420;50.876;7.012;2022-12-18T05:40:41;102430.56;;;-0.21;96.93
19553;BME280;9420;50.876;7.012;2022-12-18T05:43:09;102436.81;;;0.27;95.59
19553;BME280;9420;50.876;7.012;2022-12-18T05:45:37;102438.22;;;0.19;95.87
19553;BME280;9420;50.876;7.012;2022-12-18T05:48:05;102444.16;;;0.16;96.24
19553;BME280;9420;50.876;7.012;2022-12-18T05:50:34;102451.50;;;0.06;97.71
19553;BME280;9420;50.876;7.012;2022-12-18T05:53:02;102450.78;;;0.30;97.78
19553;BME280;9420;50.876;7.012;2022-12-18T05:55:33;102455.16;;;0.31;97.90
19553;BME280;9420;50.876;7.012;2022-12-18T05:58:02;102452.53;;;0.53;96.63
19553;BME280;9420;50.876;7.012;2022-12-18T06:00:29;102455.28;;;0.36;96.85
19553;BME280;9420;50.876;7.012;2022-12-18T06:02:56;102457.13;;;0.38;96.72
19553;BME280;9420;50.876;7.012;2022-12-18T06:05:23;102468.53;;;0.42;96.19
19553;BME280;9420;50.876;7.012;2022-12-18T06:07:51;102471.22;;;0.45;96.40
19553;BME280;9420;50.876;7.012;2022-12-18T06:10:18;102469.75;;;0.51;96.42
19553;BME280;9420;50.876;7.012;2022-12-18T06:12:45;102480.78;;;0.46;96.56
19553;BME280;9420;50.876;7.012;2022-12-18T06:15:14;102487.56;;;0.01;96.71
19553;BME280;9420;50.876;7.012;2022-12-18T06:17:41;102487.63;;;0.03;96.98
19553;BME280;9420;50.876;7.012;2022-12-18T06:20:09;102485.97;;;-0.16;98.69
19553;BME280;9420;50.876;7.012;2022-12-18T06:22:36;102491.31;;;-0.53;99.87
19553;BME280;9420;50.876;7.012;2022-12-18T06:25:04;102496.59;;;-0.69;100.00
19553;BME280;9420;50.876;7.012;2022-12-18T06:27:32;102497.16;;;-0.57;100.00
19553;BME280;9420;50.876;7.012;2022-12-18T06:29:59;102486.94;;;-0.54;98.82
19553;BME280;9420;50.876;7.012;2022-12-18T06:32:28;102499.25;;;-0.09;97.16
19553;BME280;9420;50.876;7.012;2022-12-18T06:34:56;102494.59;;;0.04;95.45
19553;BME280;9420;50.876;7.012;2022-12-18T06:37:23;102488.47;;;0.02;94.08
19553;BME280;9420;50.876;7.012;2022-12-18T06:39:51;102491.22;;;-0.15;93.11
19553;BME280;9420;50.876;7.012;2022-12-18T06:42:24;102485.09;;;-0.17;93.30
19553;BME280;9420;50.876;7.012;2022-12-18T06:44:52;102481.00;;;-0.12;92.86
19553;BME280;9420;50.876;7.012;2022-12-18T06:47:19;102475.50;;;0.02;93.45
19553;BME280;9420;50.876;7.012;2022-12-18T06:49:47;102477.97;;;-0.02;93.28
19553;BME280;9420;50.876;7.012;2022-12-18T06:52:18;102486.22;;;0.11;96.00
19553;BME280;9420;50.876;7.012;2022-12-18T06:54:45;102490.66;;;-0.08;93.72
19553;BME280;9420;50.876;7.012;2022-12-18T06:57:11;102485.97;;;-0.37;95.00
19553;BME280;9420;50.876;7.012;2022-12-18T06:59:38;102487.22;;;-0.67;98.50
19553;BME280;9420;50.876;7.012;2022-12-18T07:02:06;102492.38;;;-0.48;98.51
19553;BME280;9420;50.876;7.012;2022-12-18T07:04:33;102486.72;;;-0.39;100.00
19553;BME280;9420;50.876;7.012;2022-12-18T07:07:01;102477.25;;;-0.39;100.00
19553;BME280;9420;50.876;7.012;2022-12-18T07:09:30;102470.59;;;-0.34;100.00
19553;BME280;9420;50.876;7.012;2022-12-18T07:11:57;102483.44;;;-0.35;100.00
19553;BME280;9420;50.876;7.012;2022-12-18T07:14:24;102476.03;;;-0.47;100.00
19553;BME280;9420;50.876;7.012;2022-12-18T07:16:51;102481.19;;;-0.28;100.00
19553;BME280;9420;50.876;7.012;2022-12-18T07:19:18;102490.16;;;-0.20;100.00
19553;BME280;9420;50.876;7.012;2022-12-18T07:21:45;102488.19;;;-0.25;100.00
19553;BME280;9420;50.876;7.012;2022-12-18T07:24:14;102482.69;;;-0.12;100.00
19553;BME280;9420;50.876;7.012;2022-12-18T07:26:41;102481.28;;;-0.25;100.00
19553;BME280;9420;50.876;7.012;2022-12-18T07:29:08;102478.41;;;-0.12;100.00
19553;BME280;9420;50.876;7.012;2022-12-18T07:31:35;102483.84;;;-0.06;100.00
19553;BME280;9420;50.876;7.012;2022-12-18T07:34:02;102465.22;;;-0.18;100.00
19553;BME280;9420;50.876;7.012;2022-12-18T07:36:29;102466.41;;;-0.10;100.00
19553;BME280;9420;50.876;7.012;2022-12-18T07:38:56;102472.59;;;-0.27;100.00
19553;BME280;9420;50.876;7.012;2022-12-18T07:41:24;102466.16;;;-0.16;100.00
19553;BME280;9420;50.876;7.012;2022-12-18T07:43:51;102468.19;;;-0.09;100.00
19553;BME280;9420;50.876;7.012;2022-12-18T07:46:19;102462.63;;;-0.18;100.00
19553;BME280;9420;50.876;7.012;2022-12-18T07:48:46;102460.84;;;-0.19;100.00
19553;BME280;9420;50.876;7.012;2022-12-18T07:51:13;102462.13;;;-0.09;100.00
19553;BME280;9420;50.876;7.012;2022-12-18T07:53:41;102461.38;;;-0.07;100.00
19553;BME280;9420;50.876;7.012;2022-12-18T07:56:11;102465.75;;;-0.04;100.00
19553;BME280;9420;50.876;7.012;2022-12-18T07:58:40;102464.38;;;-0.17;100.00
19553;BME280;9420;50.876;7.012;2022-12-18T08:01:10;102459.72;;;-0.05;100.00
19553;BME280;9420;50.876;7.012;2022-12-18T08:03:39;102453.25;;;0.07;100.00
19553;BME280;9420;50.876;7.012;2022-12-18T08:06:09;102448.84;;;0.25;99.98
19553;BME280;9420;50.876;7.012;2022-12-18T08:08:36;102442.09;;;0.08;100.00
19553;BME280;9420;50.876;7.012;2022-12-18T08:11:04;102442.00;;;0.27;100.00
19553;BME280;9420;50.876;7.012;2022-12-18T08:13:31;102435.97;;;0.28;100.00
19553;BME280;9420;50.876;7.012;2022-12-18T08:16:02;102430.81;;;0.28;100.00
19553;BME280;9420;50.876;7.012;2022-12-18T08:18:36;102441.28;;;0.53;99.66
19553;BME280;9420;50.876;7.012;2022-12-18T08:21:11;102420.50;;;0.97;97.71
19553;BME280;9420;50.876;7.012;2022-12-18T08:23:40;102417.19;;;1.01;95.86
19553;BME280;9420;50.876;7.012;2022-12-18T08:26:07;102413.31;;;1.37;94.75
19553;BME280;9420;50.876;7.012;2022-12-18T08:28:35;102409.97;;;1.16;92.97
19553;BME280;9420;50.876;7.012;2022-12-18T08:31:03;102405.53;;;0.90;94.05
19553;BME280;9420;50.876;7.012;2022-12-18T08:33:31;102404.19;;;1.00;94.83
19553;BME280;9420;50.876;7.012;2022-12-18T08:35:59;102394.78;;;1.03;95.22
19553;BME280;9420;50.876;7.012;2022-12-18T08:38:27;102404.28;;;0.79;97.25
19553;BME280;9420;50.876;7.012;2022-12-18T08:40:58;102402.28;;;0.72;98.32
19553;BME280;9420;50.876;7.012;2022-12-18T08:43:26;102396.44;;;1.50;97.21
19553;BME280;9420;50.876;7.012;2022-12-18T08:46:18;102387.34;;;1.12;97.29
19553;BME280;9420;50.876;7.012;2022-12-18T08:48:50;102396.69;;;1.57;96.84
19553;BME280;9420;50.876;7.012;2022-12-18T08:51:19;102400.00;;;1.28;96.75
19553;BME280;9420;50.876;7.012;2022-12-18T08:53:47;102400.13;;;1.56;97.22
19553;BME280;9420;50.876;7.012;2022-12-18T08:56:14;102392.78;;;1.70;98.08
19553;BME280;9420;50.876;7.012;2022-12-18T08:58:41;102381.75;;;1.50;100.00
19553;BME280;9420;50.876;7.012;2022-12-18T09:01:12;102383.69;;;1.83;99.18
19553;BME280;9420;50.876;7.012;2022-12-18T09:03:40;102381.69;;;2.01;98.58
19553;BME280;9420;50.876;7.012;2022-12-18T09:06:07;102381.50;;;2.23;98.67
19553;BME280;9420;50.876;7.012;2022-12-18T09:08:35;102389.59;;;2.32;98.56
19553;BME280;9420;50.876;7.012;2022-12-18T09:11:03;102377.25;;;2.53;98.58
19553;BME280;9420;50.876;7.012;2022-12-18T09:13:31;102374.78;;;2.58;97.59
19553;BME280;9420;50.876;7.012;2022-12-18T09:15:58;102381.88;;;2.63;97.79
19553;BME280;9420;50.876;7.012;2022-12-18T09:18:27;102393.94;;;2.61;96.97
19553;BME280;9420;50.876;7.012;2022-12-18T09:20:54;102385.97;;;2.55;97.32
19553;BME280;9420;50.876;7.012;2022-12-18T09:23:21;102385.47;;;2.68;96.68
19553;BME280;9420;50.876;7.012;2022-12-18T09:25:48;102388.25;;;2.74;97.49
19553;BME280;9420;50.876;7.012;2022-12-18T09:28:17;102382.47;;;3.15;95.36
19553;BME280;9420;50.876;7.012;2022-12-18T09:30:47;102370.44;;;2.88;95.77
19553;BME280;9420;50.876;7.012;2022-12-18T09:33:15;102376.69;;;2.94;94.88
19553;BME280;9420;50.876;7.012;2022-12-18T09:35:45;102373.59;;;3.07;95.23
19553;BME280;9420;50.876;7.012;2022-12-18T09:38:15;102354.63;;;2.80;94.58
19553;BME280;9420;50.876;7.012;2022-12-18T09:40:49;102353.00;;;3.16;95.26
19553;BME280;9420;50.876;7.012;2022-12-18T09:43:20;102349.88;;;2.97;95.49
19553;BME280;9420;50.876;7.012;2022-12-18T09:45:55;102349.09;;;2.99;94.51
19553;BME280;9420;50.876;7.012;2022-12-18T09:48:28;102345.81;;;3.08;94.03
19553;BME280;9420;50.876;7.012;2022-12-18T09:51:03;102344.63;;;3.27;93.07
19553;BME280;9420;50.876;7.012;2022-12-18T09:53:37;102338.56;;;3.62;92.19
19553;BME280;9420;50.876;7.012;2022-12-18T09:56:15;102343.38;;;3.47;92.01
19553;BME280;9420;50.876;7.012;2022-12-18T09:58:50;102335.09;;;3.63;90.84
19553;BME280;9420;50.876;7.012;2022-12-18T10:01:22;102325.34;;;4.29;91.24
19553;BME280;9420;50.876;7.012;2022-12-18T10:03:50;102323.06;;;3.68;91.14
19553;BME280;9420;50.876;7.012;2022-12-18T10:06:27;102320.34;;;3.99;90.58
19553;BME280;9420;50.876;7.012;2022-12-18T10:09:06;102322.59;;;3.85;90.04
19553;BME280;9420;50.876;7.012;2022-12-18T10:11:45;102317.28;;;4.18;89.60
19553;BME280;9420;50.876;7.012;2022-12-18T10:14:23;102311.63;;;4.37;88.56
19553;BME280;9420;50.876;7.012;2022-12-18T10:17:03;102315.84;;;4.32;87.62
19553;BME280;9420;50.876;7.012;2022-12-18T10:19:46;102300.72;;;4.56;87.91
19553;BME280;9420;50.876;7.012;2022-12-18T10:22:30;102299.94;;;4.60;87.58
19553;BME280;9420;50.876;7.012;2022-12-18T10:25:15;102302.81;;;4.32;87.17
19553;BME280;9420;50.876;7.012;2022-12-18T10:27:44;102293.63;;;4.49;87.51
19553;BME280;9420;50.876;7.012;2022-12-18T10:30:14;102277.13;;;4.97;86.18
19553;BME280;9420;50.876;7.012;2022-12-18T10:32:42;102292.22;;;4.66;86.80
19553;BME280;9420;50.876;7.012;2022-12-18T10:35:18;102300.19;;;5.22;84.46
19553;BME280;9420;50.876;7.012;2022-12-18T10:38:24;102293.06;;;5.12;85.15
19553;BME280;9420;50.876;7.012;2022-12-18T10:40:55;102291.25;;;5.57;83.86
19553;BME280;9420;50.876;7.012;2022-12-18T10:43:26;102287.38;;;5.89;82.70
19553;BME280;9420;50.876;7.012;2022-12-18T10:46:12;102282.34;;;5.47;82.38
19553;BME280;9420;50.876;7.012;2022-12-18T10:48:54;102285.53;;;5.82;81.32
19553;BME280;9420;50.876;7.012;2022-12-18T10:51:26;102297.50;;;5.68;82.84
19553;BME280;9420;50.876;7.012;2022-12-18T10:53:59;102285.53;;;5.82;82.65
19553;BME280;9420;50.876;7.012;2022-12-18T10:56:30;102288.19;;;5.30;82.34
19553;BME280;9420;50.876;7.012;2022-12-18T10:59:01;102271.56;;;5.28;82.93
19553;BME280;9420;50.876;7.012;2022-12-18T11:01:31;102265.13;;;5.05;82.86
19553;BME280;9420;50.876;7.012;2022-12-18T11:04:19;102269.00;;;4.80;84.36
19553;BME280;9420;50.876;7.012;2022-12-18T11:06:57;102261.53;;;5.00;83.64
19553;BME280;9420;50.876;7.012;2022-12-18T11:09:29;102261.34;;;4.91;82.56
19553;BME280;9420;50.876;7.012;2022-12-18T11:12:01;102257.38;;;5.11;83.36
19553;BME280;9420;50.876;7.012;2022-12-18T11:14:32;102261.69;;;5.09;83.28
19553;BME280;9420;50.876;7.012;2022-12-18T11:17:00;102256.50;;;5.12;83.74
19553;BME280;9420;50.876;7.012;2022-12-18T11:19:34;102267.41;;;5.39;82.92
19553;BME280;9420;50.876;7.012;2022-12-18T11:22:19;102264.81;;;5.40;83.03
19553;BME280;9420;50.876;7.012;2022-12-18T11:24:56;102267.41;;;5.39;81.44
19553;BME280;9420;50.876;7.012;2022-12-18T11:27:25;102265.28;;;5.68;80.84
19553;BME280;9420;50.876;7.012;2022-12-18T11:29:53;102263.91;;;5.37;82.43
19553;BME280;9420;50.876;7.012;2022-12-18T11:32:37;102261.56;;;5.53;82.28
19553;BME280;9420;50.876;7.012;2022-12-18T11:35:16;102255.97;;;5.31;81.78
19553;BME280;9420;50.876;7.012;2022-12-18T11:37:51;102251.25;;;5.09;81.59
19553;BME280;9420;50.876;7.012;2022-12-18T11:40:33;102243.44;;;5.10;82.41
19553;BME280;9420;50.876;7.012;2022-12-18T11:43:09;102236.84;;;4.82;82.84
19553;BME280;9420;50.876;7.012;2022-12-18T11:45:47;102230.72;;;4.79;82.72
19553;BME280;9420;50.876;7.012;2022-12-18T11:48:21;102233.34;;;5.31;82.36
19553;BME280;9420;50.876;7.012;2022-12-18T11:50:51;102227.88;;;5.15;82.65
19553;BME280;9420;50.876;7.012;2022-12-18T11:53:20;102241.72;;;5.11;83.08
19553;BME280;9420;50.876;7.012;2022-12-18T11:56:04;102226.78;;;5.04;83.09
19553;BME280;9420;50.876;7.012;2022-12-18T11:58:46;102222.69;;;4.68;83.70
19553;BME280;9420;50.876;7.012;2022-12-18T12:01:29;102219.03;;;5.08;83.93
19553;BME280;9420;50.876;7.012;2022-12-18T12:04:33;102208.53;;;4.54;84.90
19553;BME280;9420;50.876;7.012;2022-12-18T12:07:21;102219.59;;;4.89;85.54
19553;BME280;9420;50.876;7.012;2022-12-18T12:10:03;102207.78;;;5.11;84.35
19553;BME280;9420;50.876;7.012;2022-12-18T12:15:45;102198.31;;;4.66;84.56
19553;BME280;9420;50.876;7.012;2022-12-18T12:18:29;102206.13;;;4.66;85.85
19553;BME280;9420;50.876;7.012;2022-12-18T12:21:07;102198.09;;;4.54;86.20
19553;BME280;9420;50.876;7.012;2022-12-18T12:23:45;102192.94;;;5.07;86.14
19553;BME280;9420;50.876;7.012;2022-12-18T12:26:27;102180.88;;;4.65;85.71
19553;BME280;9420;50.876;7.012;2022-12-18T12:29:15;102178.66;;;4.88;85.37
19553;BME280;9420;50.876;7.012;2022-12-18T12:32:03;102177.00;;;4.92;85.21
19553;BME280;9420;50.876;7.012;2022-12-18T12:34:45;102173.53;;;4.43;85.78
19553;BME280;9420;50.876;7.012;2022-12-18T12:37:26;102172.44;;;4.78;86.25
19553;BME280;9420;50.876;7.012;2022-12-18T12:40:01;102179.34;;;4.76;85.13
19553;BME280;9420;50.876;7.012;2022-12-18T12:42:38;102172.31;;;4.71;85.39
19553;BME280;9420;50.876;7.012;2022-12-18T12:45:34;102162.53;;;4.59;84.98
19553;BME280;9420;50.876;7.012;2022-12-18T12:48:07;102172.63;;;4.91;84.23
19553;BME280;9420;50.876;7.012;2022-12-18T12:50:41;102176.00;;;4.83;85.83
19553;BME280;9420;50.876;7.012;2022-12-18T12:53:22;102170.81;;;4.85;85.15
19553;BME280;9420;50.876;7.012;2022-12-18T12:55:52;102164.41;;;5.22;83.38
19553;BME280;9420;50.876;7.012;2022-12-18T12:58:31;102171.28;;;4.63;84.60
19553;BME280;9420;50.876;7.012;2022-12-18T13:01:14;102169.53;;;4.63;85.23
19553;BME280;9420;50.876;7.012;2022-12-18T13:03:54;102162.94;;;5.37;84.35
19553;BME280;9420;50.876;7.012;2022-12-18T13:06:43;102168.09;;;5.33;84.24
19553;BME280;9420;50.876;7.012;2022-12-18T13:09:13;102159.28;;;5.28;82.66
19553;BME280;9420;50.876;7.012;2022-12-18T13:11:42;102154.03;;;5.25;83.29
19553;BME280;9420;50.876;7.012;2022-12-18T13:14:31;102156.16;;;5.50;82.83
19553;BME280;9420;50.876;7.012;2022-12-18T13:17:34;102138.28;;;5.19;83.22
19553;BME280;9420;50.876;7.012;2022-12-18T13:20:11;102157.13;;;5.00;83.45
19553;BME280;9420;50.876;7.012;2022-12-18T13:22:43;102168.97;;;4.79;84.06
19553;BME280;9420;50.876;7.012;2022-12-18T13:25:33;102168.00;;;5.27;82.63
19553;BME280;9420;50.876;7.012;2022-12-18T13:28:11;102155.78;;;5.26;83.36
19553;BME280;9420;50.876;7.012;2022-12-18T13:30:49;102153.28;;;5.32;83.54
19553;BME280;9420;50.876;7.012;2022-12-18T13:33:44;102147.56;;;5.00;84.68
19553;BME280;9420;50.876;7.012;2022-12-18T13:36:31;102146.84;;;5.09;83.29